Oosterdam — PBKH — position and weather

sailwx.info

Track history (hours):
 
Tides and Currents Weather Stations Pressure Air Temp Water Temp Dewpoint Dewpoint Depression Visibility Wind Speed Wind Dir Waves Ship Positions

Oosterdam

Operator: Holland America Line

Last reported at 2019-May-20 05:31 UTC. Time now 2019-May-20 05:36 UTC.
Position N 48°23' W 124°18'.

MMSI: 245417000.

Date/timePositionNaut miles runAvg speedWind from/ knotsBaromVisibWave heightAir tempDewpointWater temp
2019-May-20 05:31N 48°23' W 124°18'611.7
2019-May-20 05:00N 48°21' W 124°09'612.7
2019-May-20 04:30N 48°19' W 124°01'713.2
2019-May-20 04:00N 48°17' W 123°51'714.6
2019-May-20 03:30N 48°16' W 123°40'1019.4
2019-May-20 03:00N 48°13' W 123°27'611.5
2019-May-20 02:30N 48°09' W 123°20'1019.1
2019-May-20 02:00N 48°13' W 123°07'1019.9
2019-May-20 01:30N 48°12' W 122°53'917.9
2019-May-20 00:59N 48°07' W 122°40'918.5
2019-May-20 00:30N 47°59' W 122°36'1019.1
2019-May-20 00:01N 47°52' W 122°28'1020.4
2019-May-19 23:31N 47°41' W 122°27'5 9.4
2019-May-19 23:01N 47°37' W 122°23'0 0.5
2019-May-19 22:29N 47°38' W 122°23'0 0.0
2019-May-19 21:59N 47°38' W 122°23'0 0.0
2019-May-19 21:29N 47°38' W 122°23'0 0.0
2019-May-19 20:59N 47°38' W 122°23'0 0.0
2019-May-19 20:29N 47°38' W 122°23'0 0.0
2019-May-19 19:59N 47°38' W 122°23'0 0.0
2019-May-19 19:29N 47°38' W 122°23'0 0.0
2019-May-19 18:58N 47°38' W 122°23'0 0.0
2019-May-19 18:29N 47°38' W 122°23'0 0.0
2019-May-19 17:59N 47°38' W 122°23'0 0.0
2019-May-19 17:29N 47°38' W 122°23'0 0.0
2019-May-19 16:58N 47°38' W 122°23'0 0.0
2019-May-19 16:29N 47°38' W 122°23'0 0.0
2019-May-19 15:59N 47°38' W 122°23'0 0.0
2019-May-19 15:29N 47°38' W 122°23'0 0.0
2019-May-19 14:59N 47°38' W 122°23'0 0.0
2019-May-19 14:29N 47°38' W 122°23'0 0.0
2019-May-19 13:55N 47°38' W 122°23'0 0.0
2019-May-19 13:25N 47°38' W 122°23'0 0.1
2019-May-19 13:00N 47°38' W 122°23'3 5.4
2019-May-19 12:30N 47°38' W 122°27'611.6
2019-May-19 12:00N 47°44' W 122°27'612.3
2019-May-19 11:30N 47°50' W 122°28'611.7
2019-May-19 11:00N 47°56' W 122°31'612.2
2019-May-19 10:30N 48°00' W 122°38'611.6
2019-May-19 10:00N 48°06' W 122°40'814.3
2019-May-19 09:24N 48°11' W 122°50'614.0
2019-May-19 08:58N 48°11' W 122°60'613.9
2019-May-19 08:30N 48°12' W 123°09'713.5
2019-May-19 07:58N 48°10' W 123°20'811.1
2019-May-19 07:16N 48°15' W 123°29'515.0
2019-May-19 06:58N 48°19' W 123°27'612.2
2019-May-19 06:30N 48°24' W 123°24'1 1.7
2019-May-19 05:58N 48°25' W 123°23'0 0.0
2019-May-19 05:28N 48°25' W 123°23'0 0.0
2019-May-19 04:58N 48°25' W 123°23'0 0.0
2019-May-19 04:28N 48°25' W 123°23'0 0.0
2019-May-19 03:58N 48°25' W 123°23'0 0.0
2019-May-19 03:28N 48°25' W 123°23'0 0.0
2019-May-19 02:58N 48°25' W 123°23'0 0.0
2019-May-19 02:28N 48°25' W 123°23'0 0.0
2019-May-19 01:58N 48°25' W 123°23'0 0.0
2019-May-19 01:28N 48°25' W 123°23'0 0.2
2019-May-19 01:00N 48°25' W 123°23'4 8.7
2019-May-19 00:30N 48°21' W 123°24'1719.4
2019-May-18 23:39N 48°14' W 123°47'524.2
2019-May-18 23:27N 48°14' W 123°54'1124.0
2019-May-18 23:00N 48°18' W 124°09'2133.5
2019-May-18 23:00N 48°18' W 124°06'1428.1 090 / 181007.010.8 12.8 8.313.5
2019-May-18 22:30N 48°23' W 124°25'1121.9
2019-May-18 22:00N 48°28' W 124°40'1020.7
2019-May-18 21:30N 48°29' W 124°55'1020.1
2019-May-18 21:00N 48°30' W 125°10'918.8
2019-May-18 20:30N 48°35' W 125°22'1020.5
2019-May-18 20:00N 48°41' W 125°35'1020.3
2019-May-18 19:30N 48°48' W 125°46'1020.3
2019-May-18 19:00N 48°54' W 125°58'1020.4
2019-May-18 18:30N 49°01' W 126°10'1020.7
2019-May-18 18:01N 49°08' W 126°22'1020.6
2019-May-18 17:30N 49°15' W 126°34'1020.4
2019-May-18 17:00N 49°21' W 126°46'8621.3
2019-May-18 12:59N 50°16' W 128°27'1121.0
2019-May-18 12:28N 50°24' W 128°40'1121.5
2019-May-18 11:58N 50°31' W 128°52'1122.3
2019-May-18 11:30N 50°38' W 129°04'1122.3
2019-May-18 11:00N 50°47' W 129°15'1122.3
2019-May-18 10:30N 50°57' W 129°21'1122.2
2019-May-18 10:00N 51°07' W 129°27'1122.2
2019-May-18 09:30N 51°18' W 129°33'1122.2
2019-May-18 09:00N 51°28' W 129°39'1122.0
2019-May-18 08:31N 51°39' W 129°45'1121.7
2019-May-18 08:01N 51°49' W 129°51'1121.2
2019-May-18 07:30N 51°59' W 129°57'1121.4
2019-May-18 07:00N 52°09' W 130°03'1120.6
2019-May-18 06:29N 52°19' W 130°09'3020.4
2019-May-18 05:00N 52°48' W 130°24'1919.4 120 / 401005.010.8 9.5 6.413.5
2019-May-18 04:00N 53°06' W 130°36'2125.1 120 / 401005.010.8 9.5 6.413.5
2019-May-18 03:09N 53°26' W 130°48'425.6
2019-May-18 03:00N 53°30' W 130°48'720.3 120 / 401005.010.8 9.5 6.413.5
2019-May-18 02:39N 53°36' W 130°52'422.3
2019-May-18 02:30N 53°40' W 130°53'1122.1
2019-May-18 02:00N 53°50' W 130°58'1122.1
2019-May-18 01:30N 54°01' W 131°00'1121.9
2019-May-18 01:00N 54°12' W 131°02'1121.3
2019-May-18 00:30N 54°22' W 131°08'1121.6
2019-May-18 00:00N 54°32' W 131°15'1622.4
2019-May-17 23:17N 54°48' W 131°10'722.6
2019-May-17 22:59N 54°55' W 131°09'28 6.9
2019-May-17 19:00N 55°18' W 131°36'15 2.5 050 / 21003.010.8 15.3 9.213.5
2019-May-17 13:00N 55°24' W 132°00'2914.7 130 / 81004.010.8 8.8 7.113.5
2019-May-17 11:00N 55°48' W 132°30'5811.5 180 / 81010.010.8 8.2 7.010.0
2019-May-17 06:00N 55°54' W 134°12'1514.7 290 / 8999.010.8 8.5 7.010.0
2019-May-17 05:00N 56°00' W 134°36'1818.0 320 / 91000.010.8 9.4 6.710.0
2019-May-17 04:00N 56°12' W 135°00'3618.0 320 / 91000.010.8 9.4 6.710.0
2019-May-17 02:00N 56°42' W 135°36'14 1.1 280 / 161013.010.8 9.3 7.110.0
2019-May-16 14:00N 56°54' W 135°48'1515.5 010 / 51013.010.8 8.5 7.016.0
2019-May-16 13:00N 57°06' W 136°06'17116.6 050 / 31013.010.8 8.7 7.315.5
2019-May-16 02:43N 59°16' W 139°36'16 1.8
2019-May-15 18:00N 59°06' W 139°12'5016.5 080 / 151010.010.8 8.5 6.610.0
2019-May-15 15:00N 58°30' W 138°06'1716.8 060 / 151010.010.8 8.7 7.110.0
2019-May-15 14:00N 58°24' W 137°36'2019.8 050 / 81010.010.8 8.9 6.510.0
2019-May-15 13:00N 58°12' W 137°06'1112.3 070 / 241010.010.8 9.9 7.510.0
2019-May-15 12:05N 58°10' W 136°45'549.9
2019-May-15 12:00N 58°06' W 136°48'2221.0 050 / 131010.010.8 9.0 7.010.0
2019-May-15 10:57N 58°18' W 136°14'819.0
2019-May-15 10:30N 58°20' W 135°58'918.3
2019-May-15 10:00N 58°17' W 135°41'917.7
2019-May-15 09:30N 58°14' W 135°25'1117.6
2019-May-15 08:54N 58°10' W 135°06'37 2.6
2019-May-14 19:00N 58°00' W 134°00'3718.6 080 / 41007.010.8 9.8 6.310.5
2019-May-14 17:00N 57°24' W 133°42'5317.7 100 / 61008.010.8 9.4 6.510.5
2019-May-14 14:00N 56°36' W 134°24'16018.2 270 / 51008.010.8 8.6 4.013.5
2019-May-14 05:12N 53°59' W 133°29'1818.8
2019-May-14 04:15N 53°42' W 133°18'1119.0
2019-May-14 03:39N 53°32' W 133°11'3621.8
2019-May-14 02:00N 53°00' W 132°42'15419.2 150 / 201015.010.8 9.6 8.013.5
2019-May-13 18:00N 51°06' W 129°54'6123.3 190 / 101012.010.8 9.8 8.213.5
2019-May-13 17:57N 51°11' W 129°59'1419.8
2019-May-13 17:15N 51°01' W 129°43'518.8
2019-May-13 17:00N 50°58' W 129°38'1220.5
2019-May-13 16:26N 50°51' W 129°24'921.0
2019-May-13 16:00N 50°44' W 129°14'1821.1
2019-May-13 15:09N 50°31' W 128°54'321.4
2019-May-13 15:01N 50°29' W 128°51'1121.1
2019-May-13 14:30N 50°22' W 128°38'1120.9
2019-May-13 13:58N 50°14' W 128°26'1020.7
2019-May-13 13:29N 50°08' W 128°13'5823.2
2019-May-13 11:00N 49°30' W 127°06'2418.9 080 / 61013.010.8 9.8 8.213.5
2019-May-13 09:42N 49°16' W 126°35'521.7
2019-May-13 09:29N 49°13' W 126°30'1021.7
2019-May-13 09:00N 49°07' W 126°17'1121.3
2019-May-13 08:31N 49°00' W 126°04'1121.0
2019-May-13 08:01N 48°54' W 125°52'1121.1
2019-May-13 07:31N 48°47' W 125°39'1121.3
2019-May-13 07:01N 48°41' W 125°26'1121.1
2019-May-13 06:31N 48°34' W 125°14'2345.6
2019-May-13 06:01N 48°30' W 124°40'612.0
2019-May-13 05:31N 48°27' W 124°32'713.3
2019-May-13 05:00N 48°25' W 124°22'294.0
2019-May-13 05:00N 48°24' W 124°24'714.2 320 / 281012.5 5.4 10.910.012.0
2019-May-13 04:31N 48°23' W 124°14'917.5
2019-May-13 04:01N 48°19' W 124°02'5323.2
2019-May-13 04:00N 48°18' W 123°54'4 8.8 320 / 281012.5 5.4 10.910.012.0
2019-May-13 03:30N 48°17' W 123°48'1019.8
2019-May-13 03:00N 48°15' W 123°33'917.5
2019-May-13 02:30N 48°10' W 123°23'5 9.7
2019-May-13 01:59N 48°11' W 123°15'1020.3
2019-May-13 01:31N 48°12' W 123°01'1121.2
2019-May-13 01:01N 48°10' W 122°45'1121.5
2019-May-13 00:30N 48°01' W 122°37'1121.9
2019-May-13 00:00N 47°52' W 122°28'1020.9
2019-May-12 23:30N 47°42' W 122°27'5 9.7
2019-May-12 23:00N 47°38' W 122°23'0 0.4
2019-May-12 22:29N 47°38' W 122°23'0 0.0
2019-May-12 21:59N 47°38' W 122°23'0 0.0
2019-May-12 21:26N 47°38' W 122°23'0 0.0
2019-May-12 20:59N 47°38' W 122°23'0 0.0
2019-May-12 20:29N 47°38' W 122°23'0 0.0
2019-May-12 19:59N 47°38' W 122°23'0 0.0
2019-May-12 19:26N 47°38' W 122°23'0 0.0
2019-May-12 18:59N 47°38' W 122°23'0 0.0
2019-May-12 18:29N 47°38' W 122°23'0 0.0
2019-May-12 17:59N 47°38' W 122°23'0 0.0
2019-May-12 17:29N 47°38' W 122°23'0 0.0
2019-May-12 16:59N 47°38' W 122°23'0 0.0
2019-May-12 16:29N 47°38' W 122°23'0 0.0
2019-May-12 15:59N 47°38' W 122°23'0 0.0
2019-May-12 15:29N 47°38' W 122°23'0 0.0
2019-May-12 14:56N 47°38' W 122°23'0 0.0
2019-May-12 14:26N 47°38' W 122°23'0 0.0
2019-May-12 13:59N 47°38' W 122°23'0 0.0
2019-May-12 13:29N 47°38' W 122°23'0 0.1
2019-May-12 13:00N 47°38' W 122°23'2 4.0
2019-May-12 12:30N 47°38' W 122°26'5 9.8
2019-May-12 12:00N 47°43' W 122°28'3176.3
2019-May-12 12:00N 47°42' W 122°24'613.3 180 / 161012.5 5.4 10.910.012.0
2019-May-12 11:30N 47°48' W 122°28'713.2
2019-May-12 11:00N 47°54' W 122°30'028.6
2019-May-12 11:00N 47°54' W 122°30'713.9 170 / 201012.010.8 10.9 9.812.0
2019-May-12 10:30N 47°59' W 122°37'713.4
2019-May-12 10:00N 48°05' W 122°40'612.5
2019-May-12 09:30N 48°10' W 122°47'714.0
2019-May-12 09:00N 48°11' W 122°57'815.7
2019-May-12 08:30N 48°12' W 123°09'815.1
2019-May-12 08:00N 48°10' W 123°20'612.3
2019-May-12 07:29N 48°12' W 123°29'815.5
2019-May-12 06:59N 48°19' W 123°27'611.5
2019-May-12 06:30N 48°25' W 123°24'1 1.4
2019-May-12 05:59N 48°25' W 123°23'0 0.0
2019-May-12 05:29N 48°25' W 123°23'0 0.0
2019-May-12 04:59N 48°25' W 123°23'0 0.0
2019-May-12 04:29N 48°25' W 123°23'0 0.0
2019-May-12 03:59N 48°25' W 123°23'0 0.0
2019-May-12 03:29N 48°25' W 123°23'0 0.0
2019-May-12 02:59N 48°25' W 123°23'0 0.0
2019-May-12 02:29N 48°25' W 123°23'0 0.0
2019-May-12 01:59N 48°25' W 123°23'0 0.0
2019-May-12 01:29N 48°25' W 123°23'0 0.0
2019-May-12 00:59N 48°25' W 123°23'1 1.5
2019-May-12 00:30N 48°25' W 123°24'510.1
2019-May-12 00:00N 48°20' W 123°25'816.2
2019-May-11 23:30N 48°14' W 123°33'1020.3
2019-May-11 23:00N 48°14' W 123°49'1020.9
2019-May-11 22:31N 48°16' W 124°03'1121.3
2019-May-11 22:00N 48°21' W 124°18'1020.8
2019-May-11 21:30N 48°25' W 124°32'1020.5
2019-May-11 21:01N 48°29' W 124°46'1020.6
2019-May-11 20:31N 48°29' W 125°02'1019.9
2019-May-11 20:01N 48°32' W 125°16'1121.3
2019-May-11 19:31N 48°39' W 125°29'1121.4
2019-May-11 19:00N 48°45' W 125°42'1121.5
2019-May-11 18:31N 48°52' W 125°54'1121.6
2019-May-11 18:01N 48°59' W 126°06'1121.6
2019-May-11 17:31N 49°06' W 126°19'1121.6
2019-May-11 17:01N 49°13' W 126°32'1121.4
2019-May-11 16:30N 49°20' W 126°44'1121.4
2019-May-11 16:00N 49°27' W 126°57'1421.9
2019-May-11 15:21N 49°36' W 127°14'2920.9
2019-May-11 14:00N 49°54' W 127°48'2019.5 330 / 231013.010.8 10.4 9.612.0
2019-May-11 13:00N 50°06' W 128°12'1041.7 330 / 221013.010.8 10.0 9.212.0
2019-May-11 12:45N 50°13' W 128°22'623.1
2019-May-11 12:30N 50°17' W 128°29'1122.8
2019-May-11 12:00N 50°25' W 128°42'1122.1
2019-May-11 11:31N 50°32' W 128°55'1122.1
2019-May-11 11:01N 50°40' W 129°08'1121.5
2019-May-11 10:30N 50°49' W 129°17'1122.2
2019-May-11 10:01N 50°59' W 129°23'1122.4
2019-May-11 09:31N 51°10' W 129°29'1122.3
2019-May-11 09:01N 51°20' W 129°35'1122.0
2019-May-11 08:31N 51°31' W 129°41'1122.0
2019-May-11 08:01N 51°41' W 129°47'1122.3
2019-May-11 07:31N 51°51' W 129°53'1122.4
2019-May-11 07:00N 52°02' W 129°60'1122.5
2019-May-11 06:31N 52°13' W 130°06'1122.6
2019-May-11 06:00N 52°23' W 130°12'1122.4
2019-May-11 05:31N 52°34' W 130°18'1122.4
2019-May-11 05:00N 52°44' W 130°25'1222.6
2019-May-11 04:28N 52°56' W 130°32'2422.7
2019-May-11 03:25N 53°18' W 130°44'1022.5
2019-May-11 02:59N 53°28' W 130°49'1122.5
2019-May-11 02:30N 53°38' W 130°54'1121.9
2019-May-11 02:00N 53°49' W 130°58'1122.1
2019-May-11 01:31N 53°60' W 131°01'1122.2
2019-May-11 01:00N 54°11' W 131°02'1223.1
2019-May-11 00:30N 54°22' W 131°08'1222.8
2019-May-11 00:00N 54°32' W 131°16'1716.5
2019-May-10 23:00N 54°48' W 131°06'13513.5 250 / 231015.010.8 11.0 8.414.0
2019-May-10 13:00N 55°24' W 134°54'40 5.8 120 / 101015.210.8 10.810.315.0
2019-May-10 06:00N 55°54' W 134°06'   350 / 61019.010.8 6.4 6.110.0
Track history (hours):
 
Tides and Currents Weather Stations Pressure Air Temp Water Temp Dewpoint Dewpoint Depression Visibility Wind Speed Wind Dir Waves Ship Positions

Oosterdam

Operator: Holland America Line

Last reported at 2019-May-20 05:31 UTC. Time now 2019-May-20 05:36 UTC.
Position N 48°23' W 124°18'.

MMSI: 245417000.

Date/timePositionNaut miles runAvg speedWind from/ knotsBaromVisibWave heightAir tempDewpointWater temp
2019-May-20 05:31N 48°23' W 124°18'611.7
2019-May-20 05:00N 48°21' W 124°09'612.7
2019-May-20 04:30N 48°19' W 124°01'713.2
2019-May-20 04:00N 48°17' W 123°51'714.6
2019-May-20 03:30N 48°16' W 123°40'1019.4
2019-May-20 03:00N 48°13' W 123°27'611.5
2019-May-20 02:30N 48°09' W 123°20'1019.1
2019-May-20 02:00N 48°13' W 123°07'1019.9
2019-May-20 01:30N 48°12' W 122°53'917.9
2019-May-20 00:59N 48°07' W 122°40'918.5
2019-May-20 00:30N 47°59' W 122°36'1019.1
2019-May-20 00:01N 47°52' W 122°28'1020.4
2019-May-19 23:31N 47°41' W 122°27'5 9.4
2019-May-19 23:01N 47°37' W 122°23'0 0.5
2019-May-19 22:29N 47°38' W 122°23'0 0.0
2019-May-19 21:59N 47°38' W 122°23'0 0.0
2019-May-19 21:29N 47°38' W 122°23'0 0.0
2019-May-19 20:59N 47°38' W 122°23'0 0.0
2019-May-19 20:29N 47°38' W 122°23'0 0.0
2019-May-19 19:59N 47°38' W 122°23'0 0.0
2019-May-19 19:29N 47°38' W 122°23'0 0.0
2019-May-19 18:58N 47°38' W 122°23'0 0.0
2019-May-19 18:29N 47°38' W 122°23'0 0.0
2019-May-19 17:59N 47°38' W 122°23'0 0.0
2019-May-19 17:29N 47°38' W 122°23'0 0.0
2019-May-19 16:58N 47°38' W 122°23'0 0.0
2019-May-19 16:29N 47°38' W 122°23'0 0.0
2019-May-19 15:59N 47°38' W 122°23'0 0.0
2019-May-19 15:29N 47°38' W 122°23'0 0.0
2019-May-19 14:59N 47°38' W 122°23'0 0.0
2019-May-19 14:29N 47°38' W 122°23'0 0.0
2019-May-19 13:55N 47°38' W 122°23'0 0.0
2019-May-19 13:25N 47°38' W 122°23'0 0.1
2019-May-19 13:00N 47°38' W 122°23'3 5.4
2019-May-19 12:30N 47°38' W 122°27'611.6
2019-May-19 12:00N 47°44' W 122°27'612.3
2019-May-19 11:30N 47°50' W 122°28'611.7
2019-May-19 11:00N 47°56' W 122°31'612.2
2019-May-19 10:30N 48°00' W 122°38'611.6
2019-May-19 10:00N 48°06' W 122°40'814.3
2019-May-19 09:24N 48°11' W 122°50'614.0
2019-May-19 08:58N 48°11' W 122°60'613.9
2019-May-19 08:30N 48°12' W 123°09'713.5
2019-May-19 07:58N 48°10' W 123°20'811.1
2019-May-19 07:16N 48°15' W 123°29'515.0
2019-May-19 06:58N 48°19' W 123°27'612.2
2019-May-19 06:30N 48°24' W 123°24'1 1.7
2019-May-19 05:58N 48°25' W 123°23'0 0.0
2019-May-19 05:28N 48°25' W 123°23'0 0.0
2019-May-19 04:58N 48°25' W 123°23'0 0.0
2019-May-19 04:28N 48°25' W 123°23'0 0.0
2019-May-19 03:58N 48°25' W 123°23'0 0.0
2019-May-19 03:28N 48°25' W 123°23'0 0.0
2019-May-19 02:58N 48°25' W 123°23'0 0.0
2019-May-19 02:28N 48°25' W 123°23'0 0.0
2019-May-19 01:58N 48°25' W 123°23'0 0.0
2019-May-19 01:28N 48°25' W 123°23'0 0.2
2019-May-19 01:00N 48°25' W 123°23'4 8.7
2019-May-19 00:30N 48°21' W 123°24'1719.4
2019-May-18 23:39N 48°14' W 123°47'524.2
2019-May-18 23:27N 48°14' W 123°54'1124.0
2019-May-18 23:00N 48°18' W 124°09'2133.5
2019-May-18 23:00N 48°18' W 124°06'1428.1 090 / 181007.010.8 12.8 8.313.5
2019-May-18 22:30N 48°23' W 124°25'1121.9
2019-May-18 22:00N 48°28' W 124°40'1020.7
2019-May-18 21:30N 48°29' W 124°55'1020.1
2019-May-18 21:00N 48°30' W 125°10'918.8
2019-May-18 20:30N 48°35' W 125°22'1020.5
2019-May-18 20:00N 48°41' W 125°35'1020.3
2019-May-18 19:30N 48°48' W 125°46'1020.3
2019-May-18 19:00N 48°54' W 125°58'1020.4
2019-May-18 18:30N 49°01' W 126°10'1020.7
2019-May-18 18:01N 49°08' W 126°22'1020.6
2019-May-18 17:30N 49°15' W 126°34'1020.4
2019-May-18 17:00N 49°21' W 126°46'8621.3
2019-May-18 12:59N 50°16' W 128°27'1121.0
2019-May-18 12:28N 50°24' W 128°40'1121.5
2019-May-18 11:58N 50°31' W 128°52'1122.3
2019-May-18 11:30N 50°38' W 129°04'1122.3
2019-May-18 11:00N 50°47' W 129°15'1122.3
2019-May-18 10:30N 50°57' W 129°21'1122.2
2019-May-18 10:00N 51°07' W 129°27'1122.2
2019-May-18 09:30N 51°18' W 129°33'1122.2
2019-May-18 09:00N 51°28' W 129°39'1122.0
2019-May-18 08:31N 51°39' W 129°45'1121.7
2019-May-18 08:01N 51°49' W 129°51'1121.2
2019-May-18 07:30N 51°59' W 129°57'1121.4
2019-May-18 07:00N 52°09' W 130°03'1120.6
2019-May-18 06:29N 52°19' W 130°09'3020.4
2019-May-18 05:00N 52°48' W 130°24'1919.4 120 / 401005.010.8 9.5 6.413.5
2019-May-18 04:00N 53°06' W 130°36'2125.1 120 / 401005.010.8 9.5 6.413.5
2019-May-18 03:09N 53°26' W 130°48'425.6
2019-May-18 03:00N 53°30' W 130°48'720.3 120 / 401005.010.8 9.5 6.413.5
2019-May-18 02:39N 53°36' W 130°52'422.3
2019-May-18 02:30N 53°40' W 130°53'1122.1
2019-May-18 02:00N 53°50' W 130°58'1122.1
2019-May-18 01:30N 54°01' W 131°00'1121.9
2019-May-18 01:00N 54°12' W 131°02'1121.3
2019-May-18 00:30N 54°22' W 131°08'1121.6
2019-May-18 00:00N 54°32' W 131°15'1622.4
2019-May-17 23:17N 54°48' W 131°10'722.6
2019-May-17 22:59N 54°55' W 131°09'28 6.9
2019-May-17 19:00N 55°18' W 131°36'15 2.5 050 / 21003.010.8 15.3 9.213.5
2019-May-17 13:00N 55°24' W 132°00'2914.7 130 / 81004.010.8 8.8 7.113.5
2019-May-17 11:00N 55°48' W 132°30'5811.5 180 / 81010.010.8 8.2 7.010.0
2019-May-17 06:00N 55°54' W 134°12'1514.7 290 / 8999.010.8 8.5 7.010.0
2019-May-17 05:00N 56°00' W 134°36'1818.0 320 / 91000.010.8 9.4 6.710.0
2019-May-17 04:00N 56°12' W 135°00'3618.0 320 / 91000.010.8 9.4 6.710.0
2019-May-17 02:00N 56°42' W 135°36'14 1.1 280 / 161013.010.8 9.3 7.110.0
2019-May-16 14:00N 56°54' W 135°48'1515.5 010 / 51013.010.8 8.5 7.016.0
2019-May-16 13:00N 57°06' W 136°06'17116.6 050 / 31013.010.8 8.7 7.315.5
2019-May-16 02:43N 59°16' W 139°36'16 1.8
2019-May-15 18:00N 59°06' W 139°12'5016.5 080 / 151010.010.8 8.5 6.610.0
2019-May-15 15:00N 58°30' W 138°06'1716.8 060 / 151010.010.8 8.7 7.110.0
2019-May-15 14:00N 58°24' W 137°36'2019.8 050 / 81010.010.8 8.9 6.510.0
2019-May-15 13:00N 58°12' W 137°06'1112.3 070 / 241010.010.8 9.9 7.510.0
2019-May-15 12:05N 58°10' W 136°45'549.9
2019-May-15 12:00N 58°06' W 136°48'2221.0 050 / 131010.010.8 9.0 7.010.0
2019-May-15 10:57N 58°18' W 136°14'819.0
2019-May-15 10:30N 58°20' W 135°58'918.3
2019-May-15 10:00N 58°17' W 135°41'917.7
2019-May-15 09:30N 58°14' W 135°25'1117.6
2019-May-15 08:54N 58°10' W 135°06'37 2.6
2019-May-14 19:00N 58°00' W 134°00'3718.6 080 / 41007.010.8 9.8 6.310.5
2019-May-14 17:00N 57°24' W 133°42'5317.7 100 / 61008.010.8 9.4 6.510.5
2019-May-14 14:00N 56°36' W 134°24'16018.2 270 / 51008.010.8 8.6 4.013.5
2019-May-14 05:12N 53°59' W 133°29'1818.8
2019-May-14 04:15N 53°42' W 133°18'1119.0
2019-May-14 03:39N 53°32' W 133°11'3621.8
2019-May-14 02:00N 53°00' W 132°42'15419.2 150 / 201015.010.8 9.6 8.013.5
2019-May-13 18:00N 51°06' W 129°54'6123.3 190 / 101012.010.8 9.8 8.213.5
2019-May-13 17:57N 51°11' W 129°59'1419.8
2019-May-13 17:15N 51°01' W 129°43'518.8
2019-May-13 17:00N 50°58' W 129°38'1220.5
2019-May-13 16:26N 50°51' W 129°24'921.0
2019-May-13 16:00N 50°44' W 129°14'1821.1
2019-May-13 15:09N 50°31' W 128°54'321.4
2019-May-13 15:01N 50°29' W 128°51'1121.1
2019-May-13 14:30N 50°22' W 128°38'1120.9
2019-May-13 13:58N 50°14' W 128°26'1020.7
2019-May-13 13:29N 50°08' W 128°13'5823.2
2019-May-13 11:00N 49°30' W 127°06'2418.9 080 / 61013.010.8 9.8 8.213.5
2019-May-13 09:42N 49°16' W 126°35'521.7
2019-May-13 09:29N 49°13' W 126°30'1021.7
2019-May-13 09:00N 49°07' W 126°17'1121.3
2019-May-13 08:31N 49°00' W 126°04'1121.0
2019-May-13 08:01N 48°54' W 125°52'1121.1
2019-May-13 07:31N 48°47' W 125°39'1121.3
2019-May-13 07:01N 48°41' W 125°26'1121.1
2019-May-13 06:31N 48°34' W 125°14'2345.6
2019-May-13 06:01N 48°30' W 124°40'612.0
2019-May-13 05:31N 48°27' W 124°32'713.3
2019-May-13 05:00N 48°25' W 124°22'294.0
2019-May-13 05:00N 48°24' W 124°24'714.2 320 / 281012.5 5.4 10.910.012.0
2019-May-13 04:31N 48°23' W 124°14'917.5
2019-May-13 04:01N 48°19' W 124°02'5323.2
2019-May-13 04:00N 48°18' W 123°54'4 8.8 320 / 281012.5 5.4 10.910.012.0
2019-May-13 03:30N 48°17' W 123°48'1019.8
2019-May-13 03:00N 48°15' W 123°33'917.5
2019-May-13 02:30N 48°10' W 123°23'5 9.7
2019-May-13 01:59N 48°11' W 123°15'1020.3
2019-May-13 01:31N 48°12' W 123°01'1121.2
2019-May-13 01:01N 48°10' W 122°45'1121.5
2019-May-13 00:30N 48°01' W 122°37'1121.9
2019-May-13 00:00N 47°52' W 122°28'1020.9
2019-May-12 23:30N 47°42' W 122°27'5 9.7
2019-May-12 23:00N 47°38' W 122°23'0 0.4
2019-May-12 22:29N 47°38' W 122°23'0 0.0
2019-May-12 21:59N 47°38' W 122°23'0 0.0
2019-May-12 21:26N 47°38' W 122°23'0 0.0
2019-May-12 20:59N 47°38' W 122°23'0 0.0
2019-May-12 20:29N 47°38' W 122°23'0 0.0
2019-May-12 19:59N 47°38' W 122°23'0 0.0
2019-May-12 19:26N 47°38' W 122°23'0 0.0
2019-May-12 18:59N 47°38' W 122°23'0 0.0
2019-May-12 18:29N 47°38' W 122°23'0 0.0
2019-May-12 17:59N 47°38' W 122°23'0 0.0
2019-May-12 17:29N 47°38' W 122°23'0 0.0
2019-May-12 16:59N 47°38' W 122°23'0 0.0
2019-May-12 16:29N 47°38' W 122°23'0 0.0
2019-May-12 15:59N 47°38' W 122°23'0 0.0
2019-May-12 15:29N 47°38' W 122°23'0 0.0
2019-May-12 14:56N 47°38' W 122°23'0 0.0
2019-May-12 14:26N 47°38' W 122°23'0 0.0
2019-May-12 13:59N 47°38' W 122°23'0 0.0
2019-May-12 13:29N 47°38' W 122°23'0 0.1
2019-May-12 13:00N 47°38' W 122°23'2 4.0
2019-May-12 12:30N 47°38' W 122°26'5 9.8
2019-May-12 12:00N 47°43' W 122°28'3176.3
2019-May-12 12:00N 47°42' W 122°24'613.3 180 / 161012.5 5.4 10.910.012.0
2019-May-12 11:30N 47°48' W 122°28'713.2
2019-May-12 11:00N 47°54' W 122°30'028.6
2019-May-12 11:00N 47°54' W 122°30'713.9 170 / 201012.010.8 10.9 9.812.0
2019-May-12 10:30N 47°59' W 122°37'713.4
2019-May-12 10:00N 48°05' W 122°40'612.5
2019-May-12 09:30N 48°10' W 122°47'714.0
2019-May-12 09:00N 48°11' W 122°57'815.7
2019-May-12 08:30N 48°12' W 123°09'815.1
2019-May-12 08:00N 48°10' W 123°20'612.3
2019-May-12 07:29N 48°12' W 123°29'815.5
2019-May-12 06:59N 48°19' W 123°27'611.5
2019-May-12 06:30N 48°25' W 123°24'1 1.4
2019-May-12 05:59N 48°25' W 123°23'0 0.0
2019-May-12 05:29N 48°25' W 123°23'0 0.0
2019-May-12 04:59N 48°25' W 123°23'0 0.0
2019-May-12 04:29N 48°25' W 123°23'0 0.0
2019-May-12 03:59N 48°25' W 123°23'0 0.0
2019-May-12 03:29N 48°25' W 123°23'0 0.0
2019-May-12 02:59N 48°25' W 123°23'0 0.0
2019-May-12 02:29N 48°25' W 123°23'0 0.0
2019-May-12 01:59N 48°25' W 123°23'0 0.0
2019-May-12 01:29N 48°25' W 123°23'0 0.0
2019-May-12 00:59N 48°25' W 123°23'1 1.5
2019-May-12 00:30N 48°25' W 123°24'510.1
2019-May-12 00:00N 48°20' W 123°25'816.2
2019-May-11 23:30N 48°14' W 123°33'1020.3
2019-May-11 23:00N 48°14' W 123°49'1020.9
2019-May-11 22:31N 48°16' W 124°03'1121.3
2019-May-11 22:00N 48°21' W 124°18'1020.8
2019-May-11 21:30N 48°25' W 124°32'1020.5
2019-May-11 21:01N 48°29' W 124°46'1020.6
2019-May-11 20:31N 48°29' W 125°02'1019.9
2019-May-11 20:01N 48°32' W 125°16'1121.3
2019-May-11 19:31N 48°39' W 125°29'1121.4
2019-May-11 19:00N 48°45' W 125°42'1121.5
2019-May-11 18:31N 48°52' W 125°54'1121.6
2019-May-11 18:01N 48°59' W 126°06'1121.6
2019-May-11 17:31N 49°06' W 126°19'1121.6
2019-May-11 17:01N 49°13' W 126°32'1121.4
2019-May-11 16:30N 49°20' W 126°44'1121.4
2019-May-11 16:00N 49°27' W 126°57'1421.9
2019-May-11 15:21N 49°36' W 127°14'2920.9
2019-May-11 14:00N 49°54' W 127°48'2019.5 330 / 231013.010.8 10.4 9.612.0
2019-May-11 13:00N 50°06' W 128°12'1041.7 330 / 221013.010.8 10.0 9.212.0
2019-May-11 12:45N 50°13' W 128°22'623.1
2019-May-11 12:30N 50°17' W 128°29'1122.8
2019-May-11 12:00N 50°25' W 128°42'1122.1
2019-May-11 11:31N 50°32' W 128°55'1122.1
2019-May-11 11:01N 50°40' W 129°08'1121.5
2019-May-11 10:30N 50°49' W 129°17'1122.2
2019-May-11 10:01N 50°59' W 129°23'1122.4
2019-May-11 09:31N 51°10' W 129°29'1122.3
2019-May-11 09:01N 51°20' W 129°35'1122.0
2019-May-11 08:31N 51°31' W 129°41'1122.0
2019-May-11 08:01N 51°41' W 129°47'1122.3
2019-May-11 07:31N 51°51' W 129°53'1122.4
2019-May-11 07:00N 52°02' W 129°60'1122.5
2019-May-11 06:31N 52°13' W 130°06'1122.6
2019-May-11 06:00N 52°23' W 130°12'1122.4
2019-May-11 05:31N 52°34' W 130°18'1122.4
2019-May-11 05:00N 52°44' W 130°25'1222.6
2019-May-11 04:28N 52°56' W 130°32'2422.7
2019-May-11 03:25N 53°18' W 130°44'1022.5
2019-May-11 02:59N 53°28' W 130°49'1122.5
2019-May-11 02:30N 53°38' W 130°54'1121.9
2019-May-11 02:00N 53°49' W 130°58'1122.1
2019-May-11 01:31N 53°60' W 131°01'1122.2
2019-May-11 01:00N 54°11' W 131°02'1223.1
2019-May-11 00:30N 54°22' W 131°08'1222.8
2019-May-11 00:00N 54°32' W 131°16'1716.5
2019-May-10 23:00N 54°48' W 131°06'13513.5 250 / 231015.010.8 11.0 8.414.0
2019-May-10 13:00N 55°24' W 134°54'40 5.8 120 / 101015.210.8 10.810.315.0
2019-May-10 06:00N 55°54' W 134°06'   350 / 61019.010.8 6.4 6.110.0

Dump ship's entire track history